AirNav   Air Wisconsin pilot careers
 
 463 users online  

8M7 Tradewater Airport
Dawson Springs, Kentucky, USA

GOING TO DAWSON SPRINGS?


FAA INFORMATION EFFECTIVE 19 JULY 2018

Location

FAA Identifier: 8M7
Lat/Long: 37-11-09.3000N / 087-40-30.0000W
37-11.155000N / 087-40.500000W
37.1859167 / -87.6750000
(estimated)
Elevation: 405 ft. / 123 m (estimated)
Variation: 00E (1985)
From city: 2 miles NE of DAWSON SPRINGS, KY
Time zone: UTC -5 (UTC -6 during Standard Time)
Zip code: 42408

Airport Operations

Airport use: Open to the public
Activation date: 08/1972
Control tower: no
ARTCC: MEMPHIS CENTER
FSS: LOUISVILLE FLIGHT SERVICE STATION
NOTAMs facility: LOU (NOTAM-D service available)
Attendance: UNATNDD
Wind indicator: yes, LCTD INSIDE OBJECT FREE AREA 99.14 FT FM RY CNTRLN.
Segmented circle: yes

Airport Communications

CTAF: 122.9
WX AWOS-3 at 2I0 (17 nm NE): 126.475 (270-821-4554)

Nearby radio navigation aids

VOR radial/distance  VOR name  Freq  Var
CCTr240/22.9CENTRAL CITY VORTAC109.8001W
CKVr341/36.1CLARKSVILLE VOR/DME110.6001W

Airport Services

Parking: hangars
Airframe service: NONE
Powerplant service: NONE
Bottled oxygen: NONE
Bulk oxygen: NONE

Runway Information

Runway 18/36

Dimensions: 2875 x 80 ft. / 876 x 24 m
Surface: turf, in fair condition
Runway edge markings: 18/36 RY EDGES MARKED BY WHITE PAINTED TIRES.
RUNWAY 18  RUNWAY 36
Latitude: 37-11.389275N37-10.919793N
Longitude: 087-40.539987W087-40.459505W
Elevation: 400.0 ft.394.0 ft.
Traffic pattern: leftleft
Runway heading: 172352
Obstructions: 53 ft. trees, 405 ft. from runway, 157 ft. right of centerline, 7:1 slope to clear86 ft. trees, 1793 ft. from runway, 115 ft. right of centerline, 20:1 slope to clear

Airport Ownership and Management from official FAA records

Ownership: Publicly-owned
Owner: DAWSON SPRINGS
P.O. BOX 124
DAWSON SPRINGS, KY 42408
Phone (270) 797-2781
Manager: HERBERT CHANEY
520 E ROSEDALE LANE
DAWSON SPRINGS, KY 42408
Phone 270-797-4561

Airport Operational Statistics

Aircraft based on the field: 2
Single engine airplanes: 2
    
Aircraft operations: avg 25/week *
45% military
33% transient general aviation
22% local general aviation
* for 12-month period ending 07 November 2016

Instrument Procedures

There are no published instrument procedures at 8M7.

Some nearby airports with instrument procedures:

2M0 - Princeton-Caldwell County Airport (10 nm SW)
2I0 - Madisonville Regional Airport (17 nm NE)
KHVC - Hopkinsville-Christian County Airport (22 nm SE)
5M9 - Marion-Crittenden County Airport (23 nm NW)
M21 - Muhlenberg County Airport (25 nm E)
 
Loc | Ops | Rwys | IFR | FBO | Links
Com | Nav | Svcs | Stats | Notes


 
Area around 8M7 (Tradewater Airport)
 
Road maps at: MapQuest Bing Google
 
Aerial photo
WARNING: Photo may not be current or correct
Aerial photo of 8M7 (Tradewater Airport)
Do you have a better or more recent aerial photo of Tradewater Airport that you would like to share? If so, please send us your photo.

 
Sectional chart

 
Airport distance calculator
Flying to Tradewater Airport? Find the distance to fly.

From to 8M7

Sunrise and sunset
Times for 14-Aug-2018
 Local
(UTC-5)
 Zulu
(UTC)
Morning civil twilight05:4010:40
Sunrise06:0711:07
Sunset19:4300:43
Evening civil twilight20:1101:11

Current date and time
Zulu (UTC)  14-Aug-2018 06:54:15
Local (UTC-5)  14-Aug-2018 01:54:15
 
METAR
K2I0 
17nm NE 
140635Z AUTO 00000KT 10SM SCT075 BKN090 23/21 A3002 RMK AO2 T02260207
K5M9 
23nm NW 
140635Z AUTO 30003KT 10SM BKN060 24/18 A3003 RMK AO2 T02370181
KM21 
25nm E 
140635Z AUTO 00000KT 7SM OVC070 20/20 A3002 RMK AO2 T02010201
KHOP 
32nm S 
140556Z AUTO 00000KT 10SM CLR 22/19 A3003 RMK AO2 SLP165 60000 T02200188 10287 20210 403080185 55002
TAF
KHOP 
32nm S 
140000Z 1400/1506 VRB06KT 9999 FEW050 QNH2998INS TEMPO 1408/1412 8000 BR TX31/1418Z TN19/1411Z
KCKV 
36nm S 
140524Z 1406/1506 00000KT P6SM SKC FM140800 00000KT 6SM BR SKC FM141300 00000KT P6SM SKC FM141700 27006KT P6SM SCT050 SCT250
KOWB 
40nm NE 
140520Z 1406/1506 00000KT P6SM SKC TEMPO 1408/1412 2SM BR FM141500 21005KT P6SM FEW040 BKN250 FM150000 VRB04KT P6SM FEW040 BKN150
NOTAMs
Click for the latest NOTAMs
NOTAMs are issued by the DoD/FAA and will open in a separate window not controlled by AirNav.

 

 
 

Would you like to see your business listed on this page?

 If your business provides an interesting product or service to pilots, flight crews, aircraft, or users of the Tradewater Airport, you should consider listing it here.  To start the listing process, click on the button below
 
Add a business
 

Other Pages about Tradewater Airport

Update a link
 
Copyright © AirNav, LLC. All rights reserved. Privacy Policy  Contact